sensor_id;sensor_type;location;lat;lon;timestamp;temperature;humidity
29551;DHT22;16488;52.396;10.696;2023-05-23T00:00:56;17.30;99.90
29551;DHT22;16488;52.396;10.696;2023-05-23T00:03:23;17.30;99.90
29551;DHT22;16488;52.396;10.696;2023-05-23T00:05:49;17.30;99.90
29551;DHT22;16488;52.396;10.696;2023-05-23T00:08:15;17.30;99.90
29551;DHT22;16488;52.396;10.696;2023-05-23T00:10:41;17.30;99.90
29551;DHT22;16488;52.396;10.696;2023-05-23T00:13:07;17.10;99.90
29551;DHT22;16488;52.396;10.696;2023-05-23T00:15:37;17.00;99.90
29551;DHT22;16488;52.396;10.696;2023-05-23T00:18:03;16.80;99.90
29551;DHT22;16488;52.396;10.696;2023-05-23T00:20:29;16.60;99.90
29551;DHT22;16488;52.396;10.696;2023-05-23T00:22:55;16.60;99.90
29551;DHT22;16488;52.396;10.696;2023-05-23T00:25:23;16.60;99.90
29551;DHT22;16488;52.396;10.696;2023-05-23T00:27:49;16.60;99.90
29551;DHT22;16488;52.396;10.696;2023-05-23T00:30:15;16.50;99.90
29551;DHT22;16488;52.396;10.696;2023-05-23T00:32:41;16.50;99.90
29551;DHT22;16488;52.396;10.696;2023-05-23T00:35:07;16.40;99.90
29551;DHT22;16488;52.396;10.696;2023-05-23T00:37:32;16.30;99.90
29551;DHT22;16488;52.396;10.696;2023-05-23T00:39:59;16.30;99.90
29551;DHT22;16488;52.396;10.696;2023-05-23T00:42:24;16.20;99.90
29551;DHT22;16488;52.396;10.696;2023-05-23T00:44:50;16.20;99.90
29551;DHT22;16488;52.396;10.696;2023-05-23T00:47:16;16.20;99.90
29551;DHT22;16488;52.396;10.696;2023-05-23T00:49:43;16.20;99.90
29551;DHT22;16488;52.396;10.696;2023-05-23T00:52:09;16.20;99.90
29551;DHT22;16488;52.396;10.696;2023-05-23T00:54:35;16.20;99.90
29551;DHT22;16488;52.396;10.696;2023-05-23T00:57:02;16.10;99.90
29551;DHT22;16488;52.396;10.696;2023-05-23T00:59:28;16.10;99.90
29551;DHT22;16488;52.396;10.696;2023-05-23T01:01:56;16.10;99.90
29551;DHT22;16488;52.396;10.696;2023-05-23T01:04:21;16.10;99.90
29551;DHT22;16488;52.396;10.696;2023-05-23T01:06:54;16.10;99.90
29551;DHT22;16488;52.396;10.696;2023-05-23T01:09:20;16.20;99.90
29551;DHT22;16488;52.396;10.696;2023-05-23T01:14:22;16.40;99.90
29551;DHT22;16488;52.396;10.696;2023-05-23T01:16:58;16.50;99.90
29551;DHT22;16488;52.396;10.696;2023-05-23T01:19:48;16.50;99.90
29551;DHT22;16488;52.396;10.696;2023-05-23T01:22:28;16.40;99.90
29551;DHT22;16488;52.396;10.696;2023-05-23T01:25:09;16.40;99.90
29551;DHT22;16488;52.396;10.696;2023-05-23T01:30:04;16.40;99.90
29551;DHT22;16488;52.396;10.696;2023-05-23T01:32:32;16.50;99.90
29551;DHT22;16488;52.396;10.696;2023-05-23T01:34:58;16.50;99.90
29551;DHT22;16488;52.396;10.696;2023-05-23T01:37:25;16.40;99.90
29551;DHT22;16488;52.396;10.696;2023-05-23T01:39:50;16.30;99.90
29551;DHT22;16488;52.396;10.696;2023-05-23T01:42:16;16.20;99.90
29551;DHT22;16488;52.396;10.696;2023-05-23T01:44:44;16.20;99.90
29551;DHT22;16488;52.396;10.696;2023-05-23T01:47:10;16.10;99.90
29551;DHT22;16488;52.396;10.696;2023-05-23T01:49:36;16.20;99.90
29551;DHT22;16488;52.396;10.696;2023-05-23T01:52:04;16.10;99.90
29551;DHT22;16488;52.396;10.696;2023-05-23T01:54:30;16.20;99.90
29551;DHT22;16488;52.396;10.696;2023-05-23T01:56:57;16.10;99.90
29551;DHT22;16488;52.396;10.696;2023-05-23T01:59:23;16.00;99.90
29551;DHT22;16488;52.396;10.696;2023-05-23T02:01:49;16.00;99.90
29551;DHT22;16488;52.396;10.696;2023-05-23T02:04:14;15.90;99.90
29551;DHT22;16488;52.396;10.696;2023-05-23T02:06:40;16.00;99.90
29551;DHT22;16488;52.396;10.696;2023-05-23T02:09:06;16.00;99.90
29551;DHT22;16488;52.396;10.696;2023-05-23T02:11:33;16.10;99.90
29551;DHT22;16488;52.396;10.696;2023-05-23T02:13:58;16.10;99.90
29551;DHT22;16488;52.396;10.696;2023-05-23T02:16:24;16.20;99.90
29551;DHT22;16488;52.396;10.696;2023-05-23T02:18:50;16.20;99.90
29551;DHT22;16488;52.396;10.696;2023-05-23T02:21:17;16.30;99.90
29551;DHT22;16488;52.396;10.696;2023-05-23T02:23:43;16.30;99.90
29551;DHT22;16488;52.396;10.696;2023-05-23T02:26:08;16.30;99.90
29551;DHT22;16488;52.396;10.696;2023-05-23T02:28:34;16.30;99.90
29551;DHT22;16488;52.396;10.696;2023-05-23T02:31:00;16.20;99.90
29551;DHT22;16488;52.396;10.696;2023-05-23T02:33:26;16.30;99.90
29551;DHT22;16488;52.396;10.696;2023-05-23T02:35:52;16.30;99.90
29551;DHT22;16488;52.396;10.696;2023-05-23T02:38:19;16.30;99.90
29551;DHT22;16488;52.396;10.696;2023-05-23T02:40:45;16.30;99.90
29551;DHT22;16488;52.396;10.696;2023-05-23T02:43:11;16.30;99.90
29551;DHT22;16488;52.396;10.696;2023-05-23T02:45:36;16.40;99.90
29551;DHT22;16488;52.396;10.696;2023-05-23T02:48:02;16.40;99.90
29551;DHT22;16488;52.396;10.696;2023-05-23T02:50:27;16.30;99.90
29551;DHT22;16488;52.396;10.696;2023-05-23T02:52:53;16.30;99.90
29551;DHT22;16488;52.396;10.696;2023-05-23T02:55:18;16.20;99.90
29551;DHT22;16488;52.396;10.696;2023-05-23T02:57:44;16.30;99.90
29551;DHT22;16488;52.396;10.696;2023-05-23T03:00:10;16.40;99.90
29551;DHT22;16488;52.396;10.696;2023-05-23T03:02:36;16.40;99.90
29551;DHT22;16488;52.396;10.696;2023-05-23T03:05:01;16.30;99.90
29551;DHT22;16488;52.396;10.696;2023-05-23T03:07:28;16.40;99.90
29551;DHT22;16488;52.396;10.696;2023-05-23T03:09:55;16.20;99.90
29551;DHT22;16488;52.396;10.696;2023-05-23T03:12:20;16.40;99.90
29551;DHT22;16488;52.396;10.696;2023-05-23T03:14:46;16.30;99.90
29551;DHT22;16488;52.396;10.696;2023-05-23T03:17:12;16.30;99.90
29551;DHT22;16488;52.396;10.696;2023-05-23T03:19:38;16.20;99.90
29551;DHT22;16488;52.396;10.696;2023-05-23T03:22:04;16.20;99.90
29551;DHT22;16488;52.396;10.696;2023-05-23T03:24:29;16.10;99.90
29551;DHT22;16488;52.396;10.696;2023-05-23T03:26:56;16.20;99.90
29551;DHT22;16488;52.396;10.696;2023-05-23T03:29:21;16.30;99.90
29551;DHT22;16488;52.396;10.696;2023-05-23T03:31:47;16.30;99.90
29551;DHT22;16488;52.396;10.696;2023-05-23T03:34:13;16.20;99.90
29551;DHT22;16488;52.396;10.696;2023-05-23T03:36:38;16.20;99.90
29551;DHT22;16488;52.396;10.696;2023-05-23T03:39:04;16.10;99.90
29551;DHT22;16488;52.396;10.696;2023-05-23T03:41:30;16.10;99.90
29551;DHT22;16488;52.396;10.696;2023-05-23T03:43:56;16.00;99.90
29551;DHT22;16488;52.396;10.696;2023-05-23T03:46:21;15.90;99.90
29551;DHT22;16488;52.396;10.696;2023-05-23T03:48:47;15.90;99.90
29551;DHT22;16488;52.396;10.696;2023-05-23T03:51:13;15.80;99.90
29551;DHT22;16488;52.396;10.696;2023-05-23T03:53:39;15.70;99.90
29551;DHT22;16488;52.396;10.696;2023-05-23T03:56:05;15.50;99.90
29551;DHT22;16488;52.396;10.696;2023-05-23T03:58:30;15.40;99.90
29551;DHT22;16488;52.396;10.696;2023-05-23T04:00:56;15.40;99.90
29551;DHT22;16488;52.396;10.696;2023-05-23T04:03:22;15.30;99.90
29551;DHT22;16488;52.396;10.696;2023-05-23T04:05:48;15.40;99.90
29551;DHT22;16488;52.396;10.696;2023-05-23T04:08:14;15.30;99.90
29551;DHT22;16488;52.396;10.696;2023-05-23T04:10:40;15.20;99.90
29551;DHT22;16488;52.396;10.696;2023-05-23T04:13:06;15.10;99.90
29551;DHT22;16488;52.396;10.696;2023-05-23T04:15:34;15.10;99.90
29551;DHT22;16488;52.396;10.696;2023-05-23T04:17:59;15.00;99.90
29551;DHT22;16488;52.396;10.696;2023-05-23T04:20:25;15.00;99.90
29551;DHT22;16488;52.396;10.696;2023-05-23T04:22:51;15.00;99.90
29551;DHT22;16488;52.396;10.696;2023-05-23T04:25:16;15.00;99.90
29551;DHT22;16488;52.396;10.696;2023-05-23T04:27:43;15.00;99.90
29551;DHT22;16488;52.396;10.696;2023-05-23T04:30:09;15.00;99.90
29551;DHT22;16488;52.396;10.696;2023-05-23T04:32:36;15.00;99.90
29551;DHT22;16488;52.396;10.696;2023-05-23T04:35:02;15.10;99.90
29551;DHT22;16488;52.396;10.696;2023-05-23T04:37:28;15.00;99.90
29551;DHT22;16488;52.396;10.696;2023-05-23T04:39:57;14.90;99.90
29551;DHT22;16488;52.396;10.696;2023-05-23T04:42:24;14.80;99.90
29551;DHT22;16488;52.396;10.696;2023-05-23T04:44:50;14.80;99.90
29551;DHT22;16488;52.396;10.696;2023-05-23T04:47:17;14.80;99.90
29551;DHT22;16488;52.396;10.696;2023-05-23T04:49:43;14.70;99.90
29551;DHT22;16488;52.396;10.696;2023-05-23T04:52:09;14.60;99.90
29551;DHT22;16488;52.396;10.696;2023-05-23T04:54:35;14.60;99.90
29551;DHT22;16488;52.396;10.696;2023-05-23T04:57:02;14.60;99.90
29551;DHT22;16488;52.396;10.696;2023-05-23T04:59:30;14.70;99.90
29551;DHT22;16488;52.396;10.696;2023-05-23T05:01:56;14.70;99.90
29551;DHT22;16488;52.396;10.696;2023-05-23T05:04:22;14.70;99.90
29551;DHT22;16488;52.396;10.696;2023-05-23T05:06:48;14.80;99.90
29551;DHT22;16488;52.396;10.696;2023-05-23T05:09:14;14.70;99.90
29551;DHT22;16488;52.396;10.696;2023-05-23T05:11:39;14.70;99.90
29551;DHT22;16488;52.396;10.696;2023-05-23T05:14:05;14.70;99.90
29551;DHT22;16488;52.396;10.696;2023-05-23T05:16:31;14.70;99.90
29551;DHT22;16488;52.396;10.696;2023-05-23T05:18:56;14.70;99.90
29551;DHT22;16488;52.396;10.696;2023-05-23T05:21:22;14.80;99.90
29551;DHT22;16488;52.396;10.696;2023-05-23T05:23:49;14.90;99.90
29551;DHT22;16488;52.396;10.696;2023-05-23T05:26:15;14.90;99.90
29551;DHT22;16488;52.396;10.696;2023-05-23T05:28:42;14.80;99.90
29551;DHT22;16488;52.396;10.696;2023-05-23T05:31:08;14.90;99.90
29551;DHT22;16488;52.396;10.696;2023-05-23T05:33:34;14.90;99.90
29551;DHT22;16488;52.396;10.696;2023-05-23T05:36:02;14.90;99.90
29551;DHT22;16488;52.396;10.696;2023-05-23T05:38:27;14.90;99.90
29551;DHT22;16488;52.396;10.696;2023-05-23T05:40:53;14.90;99.90
29551;DHT22;16488;52.396;10.696;2023-05-23T05:43:19;14.90;99.90
29551;DHT22;16488;52.396;10.696;2023-05-23T05:45:44;14.90;99.90
29551;DHT22;16488;52.396;10.696;2023-05-23T05:48:11;14.90;99.90
29551;DHT22;16488;52.396;10.696;2023-05-23T05:50:36;15.00;99.90
29551;DHT22;16488;52.396;10.696;2023-05-23T05:53:02;14.90;99.90
29551;DHT22;16488;52.396;10.696;2023-05-23T05:55:28;14.70;99.90
29551;DHT22;16488;52.396;10.696;2023-05-23T05:57:53;14.70;99.90
29551;DHT22;16488;52.396;10.696;2023-05-23T06:00:19;14.80;99.90
29551;DHT22;16488;52.396;10.696;2023-05-23T06:02:46;14.70;99.90
29551;DHT22;16488;52.396;10.696;2023-05-23T06:05:12;14.70;99.90
29551;DHT22;16488;52.396;10.696;2023-05-23T06:07:41;14.80;99.90
29551;DHT22;16488;52.396;10.696;2023-05-23T06:10:07;14.80;99.90
29551;DHT22;16488;52.396;10.696;2023-05-23T06:12:34;14.80;99.90
29551;DHT22;16488;52.396;10.696;2023-05-23T06:15:00;14.80;99.90
29551;DHT22;16488;52.396;10.696;2023-05-23T06:17:26;14.70;99.90
29551;DHT22;16488;52.396;10.696;2023-05-23T06:19:52;14.60;99.90
29551;DHT22;16488;52.396;10.696;2023-05-23T06:22:18;14.70;99.90
29551;DHT22;16488;52.396;10.696;2023-05-23T06:24:43;14.90;99.90
29551;DHT22;16488;52.396;10.696;2023-05-23T06:27:09;14.90;99.90
29551;DHT22;16488;52.396;10.696;2023-05-23T06:29:34;14.90;99.90
29551;DHT22;16488;52.396;10.696;2023-05-23T06:32:01;14.90;99.90
29551;DHT22;16488;52.396;10.696;2023-05-23T06:34:27;14.70;99.90
29551;DHT22;16488;52.396;10.696;2023-05-23T06:36:53;14.70;99.90
29551;DHT22;16488;52.396;10.696;2023-05-23T06:39:18;14.70;99.90
29551;DHT22;16488;52.396;10.696;2023-05-23T06:41:45;14.70;99.90
29551;DHT22;16488;52.396;10.696;2023-05-23T06:44:10;14.70;99.90
29551;DHT22;16488;52.396;10.696;2023-05-23T06:46:36;14.70;99.90
29551;DHT22;16488;52.396;10.696;2023-05-23T06:49:01;14.70;99.90
29551;DHT22;16488;52.396;10.696;2023-05-23T06:51:27;14.80;99.90
29551;DHT22;16488;52.396;10.696;2023-05-23T06:53:53;14.80;99.90
29551;DHT22;16488;52.396;10.696;2023-05-23T06:56:23;14.80;99.90
29551;DHT22;16488;52.396;10.696;2023-05-23T06:58:49;14.90;99.90
29551;DHT22;16488;52.396;10.696;2023-05-23T07:01:14;14.90;99.90
29551;DHT22;16488;52.396;10.696;2023-05-23T07:03:40;14.80;99.90
29551;DHT22;16488;52.396;10.696;2023-05-23T07:06:07;14.80;99.90
29551;DHT22;16488;52.396;10.696;2023-05-23T07:08:33;14.90;99.90
29551;DHT22;16488;52.396;10.696;2023-05-23T07:10:58;14.80;99.90
29551;DHT22;16488;52.396;10.696;2023-05-23T07:13:24;14.90;99.90
29551;DHT22;16488;52.396;10.696;2023-05-23T07:15:50;14.80;99.90
29551;DHT22;16488;52.396;10.696;2023-05-23T07:18:16;14.80;99.90
29551;DHT22;16488;52.396;10.696;2023-05-23T07:20:41;14.70;99.90
29551;DHT22;16488;52.396;10.696;2023-05-23T07:23:07;14.70;99.90
29551;DHT22;16488;52.396;10.696;2023-05-23T07:25:33;14.50;99.90
29551;DHT22;16488;52.396;10.696;2023-05-23T07:27:58;14.60;99.90
29551;DHT22;16488;52.396;10.696;2023-05-23T07:30:24;14.60;99.90
29551;DHT22;16488;52.396;10.696;2023-05-23T07:32:50;14.60;99.90
29551;DHT22;16488;52.396;10.696;2023-05-23T07:35:17;14.70;99.90
29551;DHT22;16488;52.396;10.696;2023-05-23T07:37:42;14.70;99.90
29551;DHT22;16488;52.396;10.696;2023-05-23T07:40:08;14.70;99.90
29551;DHT22;16488;52.396;10.696;2023-05-23T07:42:34;14.80;99.90
29551;DHT22;16488;52.396;10.696;2023-05-23T07:45:00;14.70;99.90
29551;DHT22;16488;52.396;10.696;2023-05-23T07:47:26;14.70;99.90
29551;DHT22;16488;52.396;10.696;2023-05-23T07:49:52;14.80;99.90
29551;DHT22;16488;52.396;10.696;2023-05-23T07:52:18;14.90;99.90
29551;DHT22;16488;52.396;10.696;2023-05-23T07:54:44;14.90;99.90
29551;DHT22;16488;52.396;10.696;2023-05-23T07:57:09;14.90;99.90
29551;DHT22;16488;52.396;10.696;2023-05-23T07:59:35;15.00;99.90
29551;DHT22;16488;52.396;10.696;2023-05-23T08:02:01;15.00;99.90
29551;DHT22;16488;52.396;10.696;2023-05-23T08:04:27;14.90;99.90
29551;DHT22;16488;52.396;10.696;2023-05-23T08:06:53;14.90;99.90
29551;DHT22;16488;52.396;10.696;2023-05-23T08:09:21;15.00;99.90
29551;DHT22;16488;52.396;10.696;2023-05-23T08:11:47;15.00;99.90
29551;DHT22;16488;52.396;10.696;2023-05-23T08:14:12;15.00;99.90
29551;DHT22;16488;52.396;10.696;2023-05-23T08:16:38;14.90;99.90
29551;DHT22;16488;52.396;10.696;2023-05-23T08:19:03;14.90;99.90
29551;DHT22;16488;52.396;10.696;2023-05-23T08:21:29;14.90;99.90
29551;DHT22;16488;52.396;10.696;2023-05-23T08:23:56;14.90;99.90
29551;DHT22;16488;52.396;10.696;2023-05-23T08:26:22;14.90;99.90
29551;DHT22;16488;52.396;10.696;2023-05-23T08:28:47;14.90;99.90
29551;DHT22;16488;52.396;10.696;2023-05-23T08:31:14;14.90;99.90
29551;DHT22;16488;52.396;10.696;2023-05-23T08:33:39;14.90;99.90
29551;DHT22;16488;52.396;10.696;2023-05-23T08:36:05;14.90;99.90
29551;DHT22;16488;52.396;10.696;2023-05-23T08:38:31;14.90;99.90
29551;DHT22;16488;52.396;10.696;2023-05-23T08:41:00;14.90;99.90
29551;DHT22;16488;52.396;10.696;2023-05-23T08:43:27;14.90;99.90
29551;DHT22;16488;52.396;10.696;2023-05-23T08:45:52;14.90;99.90
29551;DHT22;16488;52.396;10.696;2023-05-23T08:48:19;14.80;99.90
29551;DHT22;16488;52.396;10.696;2023-05-23T08:50:46;14.90;99.90
29551;DHT22;16488;52.396;10.696;2023-05-23T08:53:16;14.80;99.90
29551;DHT22;16488;52.396;10.696;2023-05-23T08:58:57;14.90;99.90
29551;DHT22;16488;52.396;10.696;2023-05-23T09:01:23;14.90;99.90
29551;DHT22;16488;52.396;10.696;2023-05-23T09:03:50;14.80;99.90
29551;DHT22;16488;52.396;10.696;2023-05-23T09:06:16;14.80;99.90
29551;DHT22;16488;52.396;10.696;2023-05-23T09:08:45;14.70;99.90
29551;DHT22;16488;52.396;10.696;2023-05-23T09:11:11;14.70;99.90
29551;DHT22;16488;52.396;10.696;2023-05-23T09:13:38;14.70;99.90
29551;DHT22;16488;52.396;10.696;2023-05-23T09:16:09;14.60;99.90
29551;DHT22;16488;52.396;10.696;2023-05-23T09:18:39;14.60;99.90
29551;DHT22;16488;52.396;10.696;2023-05-23T09:21:07;14.50;99.90
29551;DHT22;16488;52.396;10.696;2023-05-23T09:23:34;14.60;99.90
29551;DHT22;16488;52.396;10.696;2023-05-23T09:26:05;14.60;99.90
29551;DHT22;16488;52.396;10.696;2023-05-23T09:28:36;14.50;99.90
29551;DHT22;16488;52.396;10.696;2023-05-23T09:31:06;14.50;99.90
29551;DHT22;16488;52.396;10.696;2023-05-23T09:33:43;14.50;99.90
29551;DHT22;16488;52.396;10.696;2023-05-23T09:36:10;14.40;99.90
29551;DHT22;16488;52.396;10.696;2023-05-23T09:38:39;14.40;99.90
29551;DHT22;16488;52.396;10.696;2023-05-23T09:41:06;14.40;99.90
29551;DHT22;16488;52.396;10.696;2023-05-23T09:43:32;14.30;99.90
29551;DHT22;16488;52.396;10.696;2023-05-23T09:46:06;14.40;99.90
29551;DHT22;16488;52.396;10.696;2023-05-23T09:48:36;14.30;99.90
29551;DHT22;16488;52.396;10.696;2023-05-23T09:51:08;14.30;99.90
29551;DHT22;16488;52.396;10.696;2023-05-23T09:53:34;14.30;99.90
29551;DHT22;16488;52.396;10.696;2023-05-23T09:56:02;14.30;99.90
29551;DHT22;16488;52.396;10.696;2023-05-23T09:58:28;14.20;99.90
29551;DHT22;16488;52.396;10.696;2023-05-23T10:00:59;14.20;99.90
29551;DHT22;16488;52.396;10.696;2023-05-23T10:03:38;14.20;99.90
29551;DHT22;16488;52.396;10.696;2023-05-23T10:06:12;14.20;99.90
29551;DHT22;16488;52.396;10.696;2023-05-23T10:08:53;14.10;99.90
29551;DHT22;16488;52.396;10.696;2023-05-23T10:14:06;14.20;99.90
29551;DHT22;16488;52.396;10.696;2023-05-23T10:19:23;14.20;99.90
29551;DHT22;16488;52.396;10.696;2023-05-23T10:22:00;14.20;99.90
29551;DHT22;16488;52.396;10.696;2023-05-23T10:24:28;14.20;99.90
29551;DHT22;16488;52.396;10.696;2023-05-23T10:26:53;14.20;99.90
29551;DHT22;16488;52.396;10.696;2023-05-23T10:29:23;14.10;99.90
29551;DHT22;16488;52.396;10.696;2023-05-23T10:31:51;14.10;99.90
29551;DHT22;16488;52.396;10.696;2023-05-23T10:34:22;14.00;99.90
29551;DHT22;16488;52.396;10.696;2023-05-23T10:37:13;14.10;99.90
29551;DHT22;16488;52.396;10.696;2023-05-23T10:42:55;14.00;99.90
29551;DHT22;16488;52.396;10.696;2023-05-23T10:45:25;13.90;99.90
29551;DHT22;16488;52.396;10.696;2023-05-23T10:47:51;13.80;99.90
29551;DHT22;16488;52.396;10.696;2023-05-23T10:52:56;13.70;99.90
29551;DHT22;16488;52.396;10.696;2023-05-23T10:55:23;13.70;99.90
29551;DHT22;16488;52.396;10.696;2023-05-23T10:58:09;13.70;99.90
29551;DHT22;16488;52.396;10.696;2023-05-23T11:00:35;13.70;99.90
29551;DHT22;16488;52.396;10.696;2023-05-23T11:03:04;13.70;99.90
29551;DHT22;16488;52.396;10.696;2023-05-23T11:05:33;13.60;99.90
29551;DHT22;16488;52.396;10.696;2023-05-23T11:10:57;13.50;99.90
29551;DHT22;16488;52.396;10.696;2023-05-23T11:13:23;13.40;99.90
29551;DHT22;16488;52.396;10.696;2023-05-23T11:15:50;13.30;99.90
29551;DHT22;16488;52.396;10.696;2023-05-23T11:18:25;13.30;99.90
29551;DHT22;16488;52.396;10.696;2023-05-23T11:20:52;13.40;99.90
29551;DHT22;16488;52.396;10.696;2023-05-23T11:23:18;13.40;99.90
29551;DHT22;16488;52.396;10.696;2023-05-23T11:25:50;13.40;99.90
29551;DHT22;16488;52.396;10.696;2023-05-23T11:28:16;13.40;99.90
29551;DHT22;16488;52.396;10.696;2023-05-23T11:30:43;13.30;99.90
29551;DHT22;16488;52.396;10.696;2023-05-23T11:33:09;13.30;99.90
29551;DHT22;16488;52.396;10.696;2023-05-23T11:35:39;13.30;99.90
29551;DHT22;16488;52.396;10.696;2023-05-23T11:38:05;13.30;99.90
29551;DHT22;16488;52.396;10.696;2023-05-23T11:40:32;13.30;99.90
29551;DHT22;16488;52.396;10.696;2023-05-23T11:42:58;13.20;99.90
29551;DHT22;16488;52.396;10.696;2023-05-23T11:45:25;13.20;99.90
29551;DHT22;16488;52.396;10.696;2023-05-23T11:47:52;13.10;99.90
29551;DHT22;16488;52.396;10.696;2023-05-23T11:50:18;13.10;99.90
29551;DHT22;16488;52.396;10.696;2023-05-23T11:52:46;13.00;99.90
29551;DHT22;16488;52.396;10.696;2023-05-23T11:55:19;12.90;99.90
29551;DHT22;16488;52.396;10.696;2023-05-23T11:57:49;12.90;99.90
29551;DHT22;16488;52.396;10.696;2023-05-23T12:00:16;12.80;99.90
29551;DHT22;16488;52.396;10.696;2023-05-23T12:02:43;12.70;99.90
29551;DHT22;16488;52.396;10.696;2023-05-23T12:05:10;12.60;99.90
29551;DHT22;16488;52.396;10.696;2023-05-23T12:07:44;12.50;99.90
29551;DHT22;16488;52.396;10.696;2023-05-23T12:10:12;12.50;99.90
29551;DHT22;16488;52.396;10.696;2023-05-23T12:12:40;12.40;99.90
29551;DHT22;16488;52.396;10.696;2023-05-23T12:15:10;12.40;99.90
29551;DHT22;16488;52.396;10.696;2023-05-23T12:17:37;12.30;99.90
29551;DHT22;16488;52.396;10.696;2023-05-23T12:20:05;12.40;99.90
29551;DHT22;16488;52.396;10.696;2023-05-23T12:22:31;12.40;99.90
29551;DHT22;16488;52.396;10.696;2023-05-23T12:24:56;12.40;99.90
29551;DHT22;16488;52.396;10.696;2023-05-23T12:27:30;12.40;99.90
29551;DHT22;16488;52.396;10.696;2023-05-23T12:30:07;12.40;99.90
29551;DHT22;16488;52.396;10.696;2023-05-23T12:32:36;12.40;99.90
29551;DHT22;16488;52.396;10.696;2023-05-23T12:35:04;12.40;99.90
29551;DHT22;16488;52.396;10.696;2023-05-23T12:37:30;12.40;99.90
29551;DHT22;16488;52.396;10.696;2023-05-23T12:39:55;12.30;99.90
29551;DHT22;16488;52.396;10.696;2023-05-23T12:42:21;12.30;99.90
29551;DHT22;16488;52.396;10.696;2023-05-23T12:44:50;12.30;99.90
29551;DHT22;16488;52.396;10.696;2023-05-23T12:47:16;12.30;99.90
29551;DHT22;16488;52.396;10.696;2023-05-23T12:49:41;12.30;99.90
29551;DHT22;16488;52.396;10.696;2023-05-23T12:52:09;12.30;99.90
29551;DHT22;16488;52.396;10.696;2023-05-23T12:54:35;12.30;99.90
29551;DHT22;16488;52.396;10.696;2023-05-23T12:57:00;12.30;99.90
29551;DHT22;16488;52.396;10.696;2023-05-23T12:59:26;12.40;99.90
29551;DHT22;16488;52.396;10.696;2023-05-23T13:01:51;12.40;99.90
29551;DHT22;16488;52.396;10.696;2023-05-23T13:04:17;12.50;99.90
29551;DHT22;16488;52.396;10.696;2023-05-23T13:06:43;12.40;99.90
29551;DHT22;16488;52.396;10.696;2023-05-23T13:09:08;12.40;99.90
29551;DHT22;16488;52.396;10.696;2023-05-23T13:11:34;12.40;99.90
29551;DHT22;16488;52.396;10.696;2023-05-23T13:14:00;12.40;99.90
29551;DHT22;16488;52.396;10.696;2023-05-23T13:16:25;12.40;99.90
29551;DHT22;16488;52.396;10.696;2023-05-23T13:18:51;12.50;99.90
29551;DHT22;16488;52.396;10.696;2023-05-23T13:21:17;12.50;99.90
29551;DHT22;16488;52.396;10.696;2023-05-23T13:23:42;12.60;99.90
29551;DHT22;16488;52.396;10.696;2023-05-23T13:26:08;12.70;99.90
29551;DHT22;16488;52.396;10.696;2023-05-23T13:28:34;12.80;99.90
29551;DHT22;16488;52.396;10.696;2023-05-23T13:30:59;12.90;99.90
29551;DHT22;16488;52.396;10.696;2023-05-23T13:33:25;13.20;99.90
29551;DHT22;16488;52.396;10.696;2023-05-23T13:35:51;13.30;99.90
29551;DHT22;16488;52.396;10.696;2023-05-23T13:38:19;13.40;99.90
29551;DHT22;16488;52.396;10.696;2023-05-23T13:40:44;13.40;99.90
29551;DHT22;16488;52.396;10.696;2023-05-23T13:43:10;13.40;99.90
29551;DHT22;16488;52.396;10.696;2023-05-23T13:45:36;13.40;99.90
29551;DHT22;16488;52.396;10.696;2023-05-23T13:48:01;13.40;99.90
29551;DHT22;16488;52.396;10.696;2023-05-23T13:50:27;13.60;99.90
29551;DHT22;16488;52.396;10.696;2023-05-23T13:52:53;13.60;99.90
29551;DHT22;16488;52.396;10.696;2023-05-23T13:55:19;13.80;99.90
29551;DHT22;16488;52.396;10.696;2023-05-23T13:57:44;13.60;99.90
29551;DHT22;16488;52.396;10.696;2023-05-23T14:00:10;13.60;99.90
29551;DHT22;16488;52.396;10.696;2023-05-23T14:02:36;13.60;99.90
29551;DHT22;16488;52.396;10.696;2023-05-23T14:05:02;13.60;99.90
29551;DHT22;16488;52.396;10.696;2023-05-23T14:07:28;13.50;99.90
29551;DHT22;16488;52.396;10.696;2023-05-23T14:09:54;13.50;99.90
29551;DHT22;16488;52.396;10.696;2023-05-23T14:12:20;13.50;99.90
29551;DHT22;16488;52.396;10.696;2023-05-23T14:14:45;13.50;99.90
29551;DHT22;16488;52.396;10.696;2023-05-23T14:17:14;13.50;99.90
29551;DHT22;16488;52.396;10.696;2023-05-23T14:19:40;13.50;99.90
29551;DHT22;16488;52.396;10.696;2023-05-23T14:22:06;13.60;99.90
29551;DHT22;16488;52.396;10.696;2023-05-23T14:24:32;13.50;99.90
29551;DHT22;16488;52.396;10.696;2023-05-23T14:26:57;13.40;99.90
29551;DHT22;16488;52.396;10.696;2023-05-23T14:29:23;13.40;99.90
29551;DHT22;16488;52.396;10.696;2023-05-23T14:31:49;13.50;99.90
29551;DHT22;16488;52.396;10.696;2023-05-23T14:34:14;13.60;99.90
29551;DHT22;16488;52.396;10.696;2023-05-23T14:36:41;13.70;99.90
29551;DHT22;16488;52.396;10.696;2023-05-23T14:39:06;13.80;99.90
29551;DHT22;16488;52.396;10.696;2023-05-23T14:41:33;13.90;99.90
29551;DHT22;16488;52.396;10.696;2023-05-23T14:43:59;13.90;99.90
29551;DHT22;16488;52.396;10.696;2023-05-23T14:46:25;14.00;99.90
29551;DHT22;16488;52.396;10.696;2023-05-23T14:48:50;13.90;99.90
29551;DHT22;16488;52.396;10.696;2023-05-23T14:51:16;14.00;99.90
29551;DHT22;16488;52.396;10.696;2023-05-23T14:53:41;13.90;99.90
29551;DHT22;16488;52.396;10.696;2023-05-23T14:56:07;13.80;99.90
29551;DHT22;16488;52.396;10.696;2023-05-23T14:58:33;13.80;99.90
29551;DHT22;16488;52.396;10.696;2023-05-23T15:00:59;13.70;99.90
29551;DHT22;16488;52.396;10.696;2023-05-23T15:03:25;13.90;99.90
29551;DHT22;16488;52.396;10.696;2023-05-23T15:05:51;13.90;99.90
29551;DHT22;16488;52.396;10.696;2023-05-23T15:08:16;13.80;99.90
29551;DHT22;16488;52.396;10.696;2023-05-23T15:10:44;13.90;99.90
29551;DHT22;16488;52.396;10.696;2023-05-23T15:13:10;13.80;99.90
29551;DHT22;16488;52.396;10.696;2023-05-23T15:15:36;13.80;99.90
29551;DHT22;16488;52.396;10.696;2023-05-23T15:18:03;13.80;99.90
29551;DHT22;16488;52.396;10.696;2023-05-23T15:20:31;13.80;99.90
29551;DHT22;16488;52.396;10.696;2023-05-23T15:22:57;13.70;99.90
29551;DHT22;16488;52.396;10.696;2023-05-23T15:25:23;13.70;99.90
29551;DHT22;16488;52.396;10.696;2023-05-23T15:27:51;13.60;99.90
29551;DHT22;16488;52.396;10.696;2023-05-23T15:30:18;13.70;99.90
29551;DHT22;16488;52.396;10.696;2023-05-23T15:32:43;13.90;99.90
29551;DHT22;16488;52.396;10.696;2023-05-23T15:35:09;14.00;99.90